Main page
METAR-TAF:

METAR-TAF

Airports :

Portland–Troutdale Airport

Troutdale, Oregon, United States

latitude: 45-33-04N, longitude: 122-24-32W, elevation: 36 ft

Current weather observation

The report was made 1 hour and 13 minutes ago, at 02:53 UTC
Wind 5 mph from variable directions
Temperature 88°F
Humidity 29%
Pressure 29.85 in. Hg
Visibility: 10 miles
Clear sky

METAR: KTTD 210253Z AUTO VRB04KT 10SM CLR 31/11 A2985 RMK AO2 SLP106 T03060106 55004

Time: 21:06 (04:06 UTC)

Forecast

The report was made 4 hours and 46 minutes ago, at 23:20 UTC
Forecast valid from 21 at 00 UTC to 21 at 24 UTC
Wind 5 mph from variable directions
Visibility: 6 miles
Clear sky
From 21 at 1900 UTC
Wind 7 mph from the West
Visibility: 6 miles
Few clouds at a height of 25000 ft

TAF: KTTD 202320Z 2100/2124 VRB04KT P6SM SKC FM211900 27006KT P6SM FEW250

Weather observations and forecasts of more than 4000 airports (METAR and TAF reports).

The available stations are represented by yellow and red dots on the map.

Hover mouse over dot to see the name of the station.

Then click to see weather observations and forecasts.

To change the map : click on the green buttons with a black cross to zoom in, on the green button with a dash to zoom out, or on the green arrows for adjacent maps.


METAR-TAF: